Bookmark and Share
Track history (hours):
 

M/V Harvest Bounty

More information available from US FCC via Universal Licensing System and Coast Guard Vessel Documentation Center.

Last reported at 2014-Apr-24 03:32 UTC. Time now 2014-Apr-24 03:58 UTC.
Position N 29°57' W 090°23'.

Length 18 m; draft 3.8 m.

Type: Towing. MMSI: 366970740.

NotesDate/timePositionNaut miles runAvg speedWind from/ knotsBaromVisibWave heightAir tempDewpointWater temp
2014-Apr-24 03:32N 29°57' W 090°23'1 0.9
2014-Apr-24 02:30N 29°57' W 090°24'1 1.0
2014-Apr-24 01:33N 29°57' W 090°23'0 0.3
2014-Apr-24 00:33N 29°57' W 090°22'1 1.2
2014-Apr-23 23:32N 29°56' W 090°21'1 0.0
2014-Apr-22 22:33N 29°57' W 090°22'1 0.1
2014-Apr-22 12:32N 29°57' W 090°23'0 0.0
2014-Apr-22 11:32N 29°57' W 090°23'1 0.9
2014-Apr-22 10:32N 29°57' W 090°22'0 0.1
2014-Apr-22 09:32N 29°56' W 090°22'1 1.1
2014-Apr-22 08:33N 29°57' W 090°23'0 0.2
2014-Apr-22 07:32N 29°57' W 090°23'0 0.1
2014-Apr-22 06:33N 29°57' W 090°23'0 0.1
2014-Apr-22 05:33N 29°57' W 090°23'1 1.0
2014-Apr-22 04:28N 29°56' W 090°21'1 0.8
2014-Apr-22 03:31N 29°57' W 090°22'0 0.5
2014-Apr-22 02:33N 29°56' W 090°22'0 0.2
2014-Apr-22 01:28N 29°57' W 090°22'0 0.4
2014-Apr-22 00:33N 29°56' W 090°22'0 0.3
2014-Apr-21 23:32N 29°57' W 090°22'0 0.0
2014-Apr-21 12:33N 29°56' W 090°21'  
2014-Apr-17 08:12N 29°56' W 090°22'0 0.0
2014-Apr-16 23:29N 29°56' W 090°22'4 0.4
2014-Apr-16 12:33N 29°58' W 090°17'1 0.5
2014-Apr-16 11:33N 29°58' W 090°17'4 3.8
2014-Apr-16 10:33N 29°56' W 090°22'0 0.1
2014-Apr-16 09:33N 29°56' W 090°22'1 0.6
2014-Apr-16 08:31N 29°57' W 090°22'0 0.1
2014-Apr-16 07:32N 29°57' W 090°22'0 0.0
2014-Apr-16 06:29N 29°57' W 090°22'1 0.9
2014-Apr-16 05:33N 29°56' W 090°21'0 0.0
2014-Apr-16 04:33N 29°56' W 090°21'1 0.8
2014-Apr-16 03:33N 29°57' W 090°22'0 0.2
2014-Apr-16 02:33N 29°56' W 090°22'0 0.1
2014-Apr-16 01:23N 29°57' W 090°22'0 0.2
2014-Apr-16 00:32N 29°57' W 090°22'0 0.3
2014-Apr-15 23:13N 29°57' W 090°22'  

Dump ship's entire track history

sailing weather and tide predictions

M/V Harvest Bounty — WDB9157 — position and weather